• Join FlightAware (Why Join?)
  • Login
  • US Flag 
01:51AM EDT


 

Airport Tracker/Info


-or-


 

Live Flight TrackerFlight Track Log ✈ DAL2164 ✈ 23-Jul-2013 ✈ KMSP - KDCA

Flight Track Log - Related Links

Times and Time Zones

All times are in EDT time to prevent confusion due to time zone crossing. See the DAL2164 flight status page for this flight to view local times or setup timezone preferences in your user account.

Time Position Orientation Groundspeed Altitude Reporting Facility
EDT Latitude Longitude Course Direction KTS MPH feet Rate Location/Type
08:38PM 44.9503 -93.2519 129° Southeast 222 255 3,300  Level Minneapolis Center
08:39PM 45.0039 -93.1964 36° Northeast 266 306 6,400 2,880 Climbing Minneapolis Center
08:40PM 44.9689 -93.0936 116° Southeast 293 337 9,300 2,220 Climbing Minneapolis Center
08:42PM 44.9203 -92.9831 122° Southeast 333 383 11,100 1,500 Climbing Minneapolis Center
08:43PM 44.5959 -92.1917 117° Southeast  Level Estimated
08:43PM 44.8611 -92.8503 122° Southeast 394 453 12,500  Level Minneapolis Center
08:44PM 44.5474 -92.0210 129° Southeast  Level Estimated
08:44PM 44.7797 -92.6778 124° Southeast 441 507 15,000  Level Minneapolis Center
08:45PM 44.7106 -92.5322 124° Southeast 446 513 17,300 1,920 Climbing Minneapolis Center
08:46PM 44.6400 -92.3828 124° Southeast 454 522 19,000 1,680 Climbing Minneapolis Center
08:47PM 44.5664 -92.2303 124° Southeast 468 539 20,800 1,560 Climbing Minneapolis Center
08:48PM 44.4894 -92.0750 125° Southeast 482 555 22,300 1,380 Climbing Minneapolis Center
08:49PM 44.4247 -91.9042 118° Southeast 497 572 23,700 1,500 Climbing Minneapolis Center
08:50PM 44.3656 -91.7294 115° Southeast 500 575 25,400 1,860 Climbing Minneapolis Center
08:51PM 44.2956 -91.5211 115° Southeast 496 571 27,600 1,740 Climbing Minneapolis Center
08:52PM 44.2372 -91.3511 116° Southeast 491 565 29,100 1,380 Climbing Minneapolis Center
08:53PM 44.1836 -91.1967 116° Southeast 488 562 30,500 900 Climbing Minneapolis Center
08:54PM 44.1139 -90.9936 116° Southeast 488 562 31,000 240 Climbing Minneapolis Center
08:55PM 44.0558 -90.8286 116° Southeast 482 555 31,000  Level Minneapolis Center
08:56PM 43.9972 -90.6628 116° Southeast 482 555 31,000  Level Minneapolis Center
08:57PM 43.9503 -90.5314 116° Southeast 482 555 31,000  Level Chicago Center
08:58PM 43.8939 -90.3633 115° Southeast 483 556 31,000  Level Chicago Center
08:59PM 43.8575 -90.1619 104° East 474 545 31,000  Level Chicago Center
09:00PM 43.8172 -89.9856 108° East 479 551 31,000  Level Chicago Center
09:01PM 43.7792 -89.8075 106° East 483 556 31,000  Level Chicago Center
09:02PM 43.7394 -89.6311 107° East 480 552 31,000  Level Chicago Center
09:03PM 43.6969 -89.4222 106° East 484 557 31,000  Level Chicago Center
09:04PM 43.6592 -89.2442 106° East 483 556 31,000  Level Chicago Center
09:05PM 43.6208 -89.0658 106° East 483 556 31,000  Level Chicago Center
09:06PM 43.5817 -88.8886 107° East 482 555 31,000  Level Chicago Center
09:07PM 43.5433 -88.7114 107° East 480 552 31,000  Level Chicago Center
09:08PM 43.4994 -88.5114 107° East 488 562 31,000  Level Chicago Center
09:09PM 43.4628 -88.3406 106° East 490 564 31,000  Level Chicago Center
09:10PM 43.4228 -88.1611 107° East 488 562 31,000  Level Chicago Center
09:11PM 43.3764 -87.9564 107° East 483 556 31,000  Level Chicago Center
09:12PM 43.3342 -87.7800 108° East 485 558 31,000  Level Chicago Center
09:13PM 43.2944 -87.6019 107° East 487 560 31,000  Level Chicago Center
09:14PM 43.2536 -87.4231 107° East 489 563 31,000  Level Chicago Center
09:15PM 43.1997 -87.2431 112° Southeast 493 567 31,000  Level Chicago Center
09:16PM 43.1425 -87.0717 115° Southeast 496 571 31,000  Level Chicago Center
09:17PM 43.0861 -86.9025 114° Southeast 492 566 31,000  Level Chicago Center
09:19PM 43.0283 -86.7331 115° Southeast 494 568 31,000  Level Chicago Center
09:20PM 42.9603 -86.5314 115° Southeast 492 566 31,000  Level Chicago Center
09:21PM 42.9031 -86.3622 115° Southeast 495 570 31,000  Level Chicago Center
09:22PM 42.8461 -86.1978 115° Southeast 492 566 31,000  Level Chicago Center
09:23PM 42.7883 -86.0292 115° Southeast 497 572 31,000  Level Chicago Center
09:24PM 42.7197 -85.8283 115° Southeast 497 572 31,000  Level Chicago Center
09:25PM 42.6608 -85.6594 115° Southeast 498 573 31,000  Level Chicago Center
09:26PM 42.6022 -85.4897 115° Southeast 500 575 31,000  Level Chicago Center
09:28PM 42.4872 -85.1761 116° Southeast 499 574 31,000  Level Cleveland Center
09:29PM 42.4292 -85.0086 115° Southeast 499 574 31,000  Level Cleveland Center
09:30PM 42.3675 -84.8244 114° Southeast 494 568 31,000 420 Level Cleveland Center
09:31PM 42.3047 -84.6517 116° Southeast 493 567 31,900 900 Climbing Cleveland Center
09:32PM 42.2433 -84.4992 118° Southeast 508 585 32,800 540 Climbing Cleveland Center
09:33PM 42.1803 -84.3269 116° Southeast 508 585 33,000 60 Climbing Cleveland Center
09:34PM 42.1169 -84.1553 116° Southeast 508 585 33,000  Level Cleveland Center
09:35PM 42.0533 -83.9839 117° Southeast 508 585 33,000  Level Cleveland Center
09:36PM 41.9897 -83.8100 116° Southeast 508 585 33,000  Level Cleveland Center
09:37PM 41.9178 -83.6167 117° Southeast 514 592 33,000  Level Cleveland Center
09:38PM 41.8511 -83.4461 118° Southeast 514 592 33,000  Level Cleveland Center
09:39PM 41.7867 -83.2706 116° Southeast 520 598 33,000 -480 Level Cleveland Center
09:40PM 41.7217 -83.1008 117° Southeast 520 598 32,100 -600 Descending Cleveland Center
09:41PM 41.6967 -82.9081 100° East 511 588 31,800 -600 Descending Cleveland Center
09:42PM 41.6458 -82.7283 111° Southeast 517 595 31,000 -420 Descending Cleveland Center
09:43PM 41.5653 -82.5758 125° Southeast 506 582 31,000  Level Cleveland Center
09:44PM 41.4844 -82.4181 124° Southeast 523 602 31,000  Level Cleveland Center
09:45PM 41.4139 -82.2747 123° Southeast 523 602 31,000  Level Cleveland Center
09:46PM 41.3558 -82.0964 113° Southeast 513 590 31,000  Level Cleveland Center
09:47PM 41.3375 -81.9022 97° East 513 590 31,000  Level Cleveland Center
09:48PM 41.3208 -81.7083 96° East 518 596 31,000  Level Cleveland Center
09:49PM 41.2956 -81.4978 99° East 523 602 31,000  Level Cleveland Center
09:50PM 41.2803 -81.3014 96° East 523 602 31,000  Level Cleveland Center
09:51PM 41.2625 -81.1133 97° East 523 602 31,000  Level Cleveland Center
09:52PM 41.2425 -80.9172 98° East 523 602 31,000  Level Cleveland Center
09:53PM 41.2242 -80.7267 97° East 523 602 31,000  Level Cleveland Center
09:54PM 41.2053 -80.5528 98° East 523 602 31,000  Level Cleveland Center
09:55PM 41.1864 -80.3569 97° East 523 602 31,000  Level Cleveland Center
09:56PM 41.1692 -80.1694 97° East 523 602 31,000  Level Cleveland Center
09:57PM 41.1456 -79.9792 99° East 523 602 31,000  Level Cleveland Center
09:58PM 41.1275 -79.7811 97° East 523 602 31,000  Level Cleveland Center
09:59PM 41.1050 -79.5719 98° East 529 609 31,000  Level Cleveland Center
10:00PM 41.0822 -79.3794 99° East 529 609 31,000 -480 Level Cleveland Center
10:01PM 41.0614 -79.1842 98° East 529 609 30,100 -960 Descending Cleveland Center
10:02PM 41.0400 -78.9947 98° East 524 603 29,100 -900 Descending Cleveland Center
10:03PM 41.0186 -78.8053 98° East 519 597 28,300 -1,500 Descending Cleveland Center
10:04PM 40.9967 -78.6189 99° East 519 597 26,100 -1,200 Descending Cleveland Center
10:05PM 40.9519 -78.2886 100° East 509 586 25,000 -420 Descending New York Center
10:06PM 40.9300 -78.1078 99° East 509 586 25,000  Level New York Center
10:07PM 40.8725 -77.9586 117° Southeast 504 580 25,000 -1,680 Level New York Center
10:08PM 40.7572 -77.8644 148° Southeast 465 535 21,700 -2,880 Descending New York Center
10:09PM 40.6436 -77.7761 149° Southeast 465 535 19,300 -1,380 Descending New York Center
10:10PM 40.5319 -77.6908 150° Southeast 465 535 19,000 -180 Descending New York Center
10:11PM 40.4061 -77.5964 150° Southeast 471 542 19,000  Level New York Center
10:12PM 40.3044 -77.5156 149° Southeast 466 536 19,000  Level New York Center
10:13PM 40.1822 -77.4250 150° Southeast 466 536 19,000  Level New York Center
10:14PM 40.0764 -77.3417 149° Southeast 460 529 19,000  Level New York Center
10:15PM 39.9683 -77.2583 149° Southeast 448 516 19,000 -660 Level New York Center
10:17PM 39.8167 -77.1500 151° Southeast 437 503 17,500 -1,260 Descending Potomac TRACON
10:18PM 39.7167 -77.0667 147° Southeast 430 495 16,100 -1,860 Descending Potomac TRACON
10:19PM 39.6167 -77.0000 153° Southeast 414 476 13,800 -2,040 Descending Potomac TRACON
10:20PM 39.5167 -76.9167 147° Southeast 400 460 12,100 -900 Descending Potomac TRACON
10:21PM 39.4167 -76.8500 153° Southeast 399 459 12,100 -120 Level Potomac TRACON
10:22PM 39.3333 -76.7833 148° Southeast 402 463 11,900 -1,020 Descending Potomac TRACON
10:23PM 39.2333 -76.7000 147° Southeast 397 457 10,100 -960 Descending Potomac TRACON
10:24PM 39.1333 -76.7000 180° South 359 413 10,000 -60 Descending Potomac TRACON
10:25PM 39.0667 -76.7833 224° Southwest 347 399 10,000 -60 Level Potomac TRACON
10:26PM 39.0000 -76.8667 224° Southwest 301 346 9,900 -1,080 Descending Potomac TRACON
10:27PM 38.9333 -76.9333 218° Southwest 297 342 7,900 -1,980 Descending Potomac TRACON
10:28PM 38.8500 -76.9500 189° South 304 350 6,000 -1,920 Descending Potomac TRACON